createdAt,value
2023-05-07T00:02:45.664Z,44.10
2023-05-07T00:07:49.122Z,40.70
2023-05-07T00:17:58.481Z,42.47
2023-05-07T00:23:01.250Z,45.22
2023-05-07T00:28:05.372Z,42.47
2023-05-07T00:33:08.296Z,45.85
2023-05-07T00:38:11.057Z,44.30
2023-05-07T00:43:15.107Z,45.90
2023-05-07T00:48:17.991Z,41.33
2023-05-07T00:53:20.873Z,44.92
2023-05-07T00:58:25.821Z,46.30
2023-05-07T01:03:28.496Z,45.20
2023-05-07T01:13:37.062Z,46.60
2023-05-07T01:18:39.834Z,48.60
2023-05-07T01:23:44.238Z,42.47
2023-05-07T01:28:46.939Z,44.53
2023-05-07T01:33:51.966Z,44.10
2023-05-07T01:38:59.524Z,40.03
2023-05-07T01:44:03.391Z,37.05
2023-05-07T01:49:06.125Z,38.10
2023-05-07T01:54:10.131Z,40.63
2023-05-07T01:59:14.523Z,38.20
2023-05-07T02:04:17.203Z,39.28
2023-05-07T02:09:21.268Z,40.63
2023-05-07T02:14:23.862Z,41.10
2023-05-07T02:19:26.465Z,43.13
2023-05-07T02:24:30.995Z,43.90
2023-05-07T02:29:33.845Z,45.03
2023-05-07T02:34:36.700Z,48.28
2023-05-07T02:39:40.729Z,45.10
2023-05-07T02:44:43.400Z,41.25
2023-05-07T02:49:45.996Z,45.80
2023-05-07T02:54:49.999Z,41.63
2023-05-07T02:59:53.017Z,44.30
2023-05-07T03:04:55.732Z,38.47
2023-05-07T03:09:59.658Z,41.17
2023-05-07T03:15:02.297Z,39.22
2023-05-07T03:20:05.829Z,45.17
2023-05-07T03:25:11.163Z,42.15
2023-05-07T03:30:15.154Z,42.60
2023-05-07T03:35:17.799Z,37.10
2023-05-07T03:40:21.850Z,42.73
2023-05-07T03:45:24.475Z,43.85
2023-05-07T03:50:27.113Z,42.80
2023-05-07T03:55:31.017Z,44.37
2023-05-07T04:00:35.067Z,43.65
2023-05-07T04:05:37.632Z,54.38
2023-05-07T04:10:41.653Z,44.77
2023-05-07T04:15:44.327Z,45.30
2023-05-07T04:20:46.874Z,50.87
2023-05-07T04:25:50.970Z,48.60
2023-05-07T04:30:53.551Z,46.00
2023-05-07T04:35:56.328Z,48.07
2023-05-07T04:41:06.268Z,42.28
2023-05-07T04:46:09.053Z,41.53
2023-05-07T04:51:11.906Z,41.47
2023-05-07T04:56:15.893Z,40.38
2023-05-07T05:01:18.626Z,40.97
2023-05-07T05:06:21.386Z,34.92
2023-05-07T05:11:25.451Z,38.38
2023-05-07T05:16:28.482Z,36.17
2023-05-07T05:21:31.117Z,33.85
2023-05-07T05:26:35.066Z,35.57
2023-05-07T05:31:37.705Z,34.53
2023-05-07T05:36:40.356Z,31.88
2023-05-07T05:41:44.266Z,33.33
2023-05-07T05:46:46.893Z,32.70
2023-05-07T05:51:49.471Z,33.67
2023-05-07T05:56:53.486Z,29.23
2023-05-07T06:01:56.087Z,31.17
2023-05-07T06:06:58.803Z,31.23
2023-05-07T06:12:02.797Z,33.88
2023-05-07T06:17:06.238Z,29.13
2023-05-07T06:22:09.285Z,28.58
2023-05-07T06:27:13.233Z,29.10
2023-05-07T06:32:16.359Z,28.17
2023-05-07T06:37:19.017Z,28.33
2023-05-07T06:42:23.120Z,29.80
2023-05-07T06:47:26.206Z,28.88
2023-05-07T06:52:28.946Z,28.15
2023-05-07T06:57:33.939Z,31.52
2023-05-07T07:02:36.689Z,31.98
2023-05-07T07:07:39.367Z,35.17
2023-05-07T07:12:44.891Z,31.83
2023-05-07T07:17:47.577Z,29.77
2023-05-07T07:22:50.189Z,30.35
2023-05-07T07:27:54.183Z,28.63
2023-05-07T07:33:01.631Z,28.15
2023-05-07T07:38:04.324Z,28.33
2023-05-07T07:43:08.284Z,24.80
2023-05-07T07:48:10.941Z,25.20
2023-05-07T07:53:13.535Z,20.98
2023-05-07T07:58:17.548Z,23.95
2023-05-07T08:03:20.781Z,19.52
2023-05-07T08:08:23.469Z,23.70
2023-05-07T08:13:27.681Z,21.40
2023-05-07T08:18:30.394Z,19.40
2023-05-07T08:23:33.016Z,19.63
2023-05-07T08:28:37.435Z,19.23
2023-05-07T08:33:40.256Z,18.92
2023-05-07T08:43:50.573Z,22.25
2023-05-07T08:48:53.882Z,24.35
2023-05-07T08:53:56.702Z,25.98
2023-05-07T08:59:01.032Z,21.88
2023-05-07T09:04:04.035Z,20.73
2023-05-07T09:09:06.723Z,22.15
2023-05-07T09:14:10.645Z,21.13
2023-05-07T09:19:13.298Z,22.80
2023-05-07T09:24:17.842Z,24.63
2023-05-07T09:29:22.089Z,30.48
2023-05-07T09:34:24.839Z,21.40
2023-05-07T09:39:27.711Z,18.92
2023-05-07T09:49:37.791Z,17.58
2023-05-07T09:54:41.313Z,18.23
2023-05-07T09:59:45.722Z,19.77
2023-05-07T10:04:48.554Z,19.17
2023-05-07T10:09:52.285Z,16.92
2023-05-07T10:14:58.184Z,17.08
2023-05-07T10:20:02.212Z,16.17
2023-05-07T10:25:12.212Z,14.95
2023-05-07T10:30:27.920Z,17.33
2023-05-07T10:35:33.752Z,15.07
2023-05-07T10:40:37.030Z,15.77
2023-05-07T10:45:41.060Z,13.15
2023-05-07T10:50:44.804Z,18.70
2023-05-07T10:55:49.083Z,14.77
2023-05-07T11:00:59.195Z,16.30
2023-05-07T11:06:12.722Z,16.58
2023-05-07T11:11:16.524Z,15.40
2023-05-07T11:16:23.861Z,15.35
2023-05-07T11:21:37.857Z,17.58
2023-05-07T11:26:46.963Z,14.80
2023-05-07T11:31:55.304Z,13.80
2023-05-07T11:36:58.455Z,13.93
2023-05-07T11:42:02.868Z,15.88
2023-05-07T11:47:07.847Z,14.88
2023-05-07T11:52:12.008Z,14.27
2023-05-07T11:57:16.828Z,14.98
2023-05-07T12:02:20.875Z,16.02
2023-05-07T12:07:23.599Z,15.73
2023-05-07T12:12:28.003Z,12.65
2023-05-07T12:17:32.447Z,15.40
2023-05-07T12:22:35.160Z,15.85
2023-05-07T12:27:40.183Z,14.65
2023-05-07T12:32:47.299Z,13.82
2023-05-07T12:37:56.877Z,17.92
2023-05-07T12:43:01.315Z,14.32
2023-05-07T12:48:05.499Z,12.25
2023-05-07T12:53:12.028Z,12.50
2023-05-07T12:58:18.891Z,14.40
2023-05-07T13:03:28.385Z,14.52
2023-05-07T13:08:32.913Z,14.10
2023-05-07T13:13:37.009Z,13.73
2023-05-07T13:18:44.621Z,12.40
2023-05-07T13:23:47.547Z,13.27
2023-05-07T13:28:50.680Z,12.07
2023-05-07T13:33:54.812Z,11.25
2023-05-07T13:38:57.583Z,12.27
2023-05-07T13:44:00.211Z,13.15
2023-05-07T13:49:04.210Z,11.68
2023-05-07T13:54:06.856Z,10.70
2023-05-07T13:59:09.920Z,12.05
2023-05-07T14:04:13.937Z,10.32
2023-05-07T14:09:16.627Z,10.38
2023-05-07T14:14:19.363Z,14.38
2023-05-07T14:19:24.785Z,12.07
2023-05-07T14:24:37.640Z,15.15
2023-05-07T14:29:41.144Z,10.40
2023-05-07T14:34:45.479Z,10.13
2023-05-07T14:39:50.679Z,12.70
2023-05-07T14:44:54.129Z,15.55
2023-05-07T14:49:59.358Z,12.27
2023-05-07T14:55:02.306Z,10.57
2023-05-07T15:00:06.209Z,10.73
2023-05-07T15:05:11.022Z,12.90
2023-05-07T15:10:13.884Z,14.25
2023-05-07T15:15:16.457Z,13.48
2023-05-07T15:20:21.012Z,10.85
2023-05-07T15:25:24.155Z,12.85
2023-05-07T15:30:27.036Z,15.27
2023-05-07T15:35:31.384Z,12.23
2023-05-07T15:40:36.241Z,11.45
2023-05-07T15:45:41.215Z,11.30
2023-05-07T15:50:45.297Z,11.93
2023-05-07T15:55:49.526Z,13.32
2023-05-07T16:00:53.355Z,13.10
2023-05-07T16:05:58.141Z,13.23
2023-05-07T16:11:01.154Z,11.43
2023-05-07T16:16:04.314Z,13.55
2023-05-07T16:21:08.303Z,13.48
2023-05-07T16:26:10.958Z,16.17
2023-05-07T16:31:14.861Z,17.80
2023-05-07T16:36:19.276Z,15.48
2023-05-07T16:41:21.908Z,17.30
2023-05-07T16:46:24.633Z,14.98
2023-05-07T16:56:32.019Z,18.58
2023-05-07T17:01:35.249Z,19.00
2023-05-07T17:06:39.350Z,17.67
2023-05-07T17:11:41.995Z,19.15
2023-05-07T17:16:44.810Z,20.95
2023-05-07T17:21:48.960Z,17.73
2023-05-07T17:26:51.601Z,20.55
2023-05-07T17:31:54.322Z,21.13
2023-05-07T17:36:58.716Z,19.85
2023-05-07T17:42:01.424Z,21.63
2023-05-07T17:47:04.195Z,20.65
2023-05-07T17:52:09.483Z,20.85
2023-05-07T17:57:12.104Z,24.23
2023-05-07T18:02:14.857Z,23.52
2023-05-07T18:07:18.871Z,26.90
2023-05-07T18:12:23.174Z,23.38
2023-05-07T18:17:27.872Z,26.27
2023-05-07T18:22:32.024Z,22.90
2023-05-07T18:27:34.712Z,24.55
2023-05-07T18:32:37.470Z,32.53
2023-05-07T18:37:41.476Z,32.70
2023-05-07T18:42:44.308Z,24.00
2023-05-07T18:47:48.459Z,28.38
2023-05-07T18:52:52.633Z,26.02
2023-05-07T18:57:55.385Z,28.17
2023-05-07T19:02:58.024Z,29.23
2023-05-07T19:08:02.027Z,33.78
2023-05-07T19:13:04.805Z,39.13
2023-05-07T19:18:09.108Z,34.33
2023-05-07T19:23:13.149Z,34.42
2023-05-07T19:28:15.989Z,33.40
2023-05-07T19:33:18.635Z,31.83
2023-05-07T19:38:22.590Z,26.90
2023-05-07T19:43:25.471Z,29.55
2023-05-07T19:48:28.161Z,30.80
2023-05-07T19:53:32.312Z,29.30
2023-05-07T19:58:35.489Z,27.42
2023-05-07T20:08:44.854Z,29.00
2023-05-07T20:13:47.590Z,30.02
2023-05-07T20:18:50.368Z,27.05
2023-05-07T20:23:54.509Z,26.35
2023-05-07T20:28:57.277Z,23.67
2023-05-07T20:34:00.023Z,28.38
2023-05-07T20:39:04.306Z,25.42
2023-05-07T20:44:07.086Z,26.10
2023-05-07T20:49:09.794Z,26.80
2023-05-07T20:54:14.638Z,26.92
2023-05-07T20:59:17.459Z,23.95
2023-05-07T21:04:20.075Z,25.88
2023-05-07T21:09:24.194Z,23.45
2023-05-07T21:14:26.992Z,23.67
2023-05-07T21:19:29.616Z,20.17
2023-05-07T21:24:33.592Z,26.48
2023-05-07T21:29:36.453Z,20.00
2023-05-07T21:34:39.079Z,20.02
2023-05-07T21:39:44.133Z,21.65
2023-05-07T21:44:46.784Z,22.42
2023-05-07T21:49:49.404Z,21.25
2023-05-07T21:54:54.394Z,21.88
2023-05-07T21:59:57.097Z,20.95
2023-05-07T22:04:59.704Z,21.02
2023-05-07T22:10:03.782Z,20.13
2023-05-07T22:15:07.552Z,22.25
2023-05-07T22:20:11.532Z,24.08
2023-05-07T22:25:16.300Z,24.60
2023-05-07T22:30:19.390Z,20.85
2023-05-07T22:35:22.285Z,23.02
2023-05-07T22:40:26.308Z,23.63
2023-05-07T22:45:28.980Z,23.85
2023-05-07T22:50:31.690Z,24.27
2023-05-07T22:55:35.981Z,27.20
2023-05-07T23:00:38.866Z,26.02
2023-05-07T23:05:42.394Z,28.80
2023-05-07T23:10:46.526Z,26.73
2023-05-07T23:15:50.682Z,26.27
2023-05-07T23:20:53.260Z,26.23
2023-05-07T23:25:57.292Z,29.77
2023-05-07T23:31:00.015Z,30.00
2023-05-07T23:36:03.817Z,27.80
2023-05-07T23:41:08.214Z,28.45
2023-05-07T23:46:10.934Z,30.38
2023-05-07T23:51:13.620Z,30.50
2023-05-07T23:56:17.622Z,31.05
